Capitol Logistics 971

Operating for DHL



LIRF
Leonardo da Vinci International Airport
Rome, IT
LIMJ
Genoa Cristoforo Colombo Airport
Genoa, IT

Activity Log

Date Flight Route Aircraft Duration
01/28/2022 CPX971 NENI7X GILIO Q704 KALMO KALM3G A31F 1h 01m
12/20/2021 CPX971 NENI7L GILIO Q704 KALMO KALM3B A30F 0h 54m

Route Details

Aircraft Information
Group: European Fleet
Types: A30F,A31F,B738
Route Data
Demand: V
Distance: 217nm
Duration: 1h 19m
Recm'd Route: NENI7X GILIO Q704 KALMO KALM3G
Origin Wx: LIRF 270650Z 09004KT 030V160 CAVOK 26/14 Q1015 NOSIG
Dest. Wx: LIMJ 270650Z 03013KT CAVOK 26/17 Q1016
Notes:

Financial History
Total Freight: 119,145lbs
Average Load: 59,573lbs/flt
Fuel Used: 20,878lbs
Avg. Fuel Used: 10,439lbs/flt
Fuel Expense: $7,203
Avg. Fuel Expense: $3,602
Avg. Fuel Cost: $0.34/lbs
Total Gross Income: $243,175
Pilot Pay: $498
Total Expenses: $29,701
Total Revenue: $205,889
Average Revenue: $121,587.47